首页
METAR-TAF:

METAR-TAF

机场 :

Airlake Airport

明尼阿波利斯 / Lakeville, 明尼蘇達州, 美国

纬度: 44-37-40N, 经度: 093-13-41W, 海拔: 293米

当前天气观测

该预报发布于43分钟前的13:55 UTC
风速7节,风向
温度 20°C
湿度 64%
气压 1024 hPa
能見度: 16.1公里
天空无云

METAR: KLVN 221355Z AUTO 01007KT 10SM CLR 20/13 A3024 RMK AO2

时间: 09:38 (14:38 UTC)


TAF: 丢失

超过4000个机场的气象观测和天气预报(METAR&TAF报告)。

可查询的气象台以黄色和红色小点在地图上表示。

将鼠标移到小点上方,可查看气象台名称。

然后点击查看天气观测和预报。

如需切换地图:点击带黑十字的绿色按钮放大地图;点击带横线的绿色按钮缩小地图;或者点击绿色箭头查看邻近地区的地图。


METAR-TAF: